Time;durP1;ratioP1;P1;durP2;ratioP2;P2;SDS_P1;SDS_P2;PMS_P1;PMS_P2;Temp;Humidity;BMP_temperature;BMP_pressure;BME280_temperature;BME280_humidity;BME280_pressure;Samples;Min_cycle;Max_cycle;Signal;HPM_P1;HPM_P2
2022/08/25 00:00:16;;;;;;;;;30.60;28.80;;;;;27.13;55.84;99353.78;5143284;27;8855;-78
2022/08/25 00:03:03;;;;;;;;;33.60;31.40;;;;;27.30;55.08;99361.47;5142782;27;8877;-77
2022/08/25 00:05:32;;;;;;;;;30.80;28.00;;;;;27.39;54.57;99363.47;5099307;27;9006;-78
2022/08/25 00:08:02;;;;;;;;;28.40;26.60;;;;;27.48;54.24;99363.75;5151902;27;8851;-80
2022/08/25 00:10:33;;;;;;;;;32.40;30.60;;;;;27.56;54.28;99356.88;5151920;27;8939;-77
2022/08/25 00:13:03;;;;;;;;;28.60;27.00;;;;;27.59;54.12;99361.97;5125790;27;8830;-78
2022/08/25 00:15:32;;;;;;;;;30.00;29.60;;;;;27.64;53.84;99358.09;5125903;27;8844;-81
2022/08/25 00:18:01;;;;;;;;;27.60;27.40;;;;;27.68;53.62;99356.94;5113516;27;8821;-79
2022/08/25 00:20:31;;;;;;;;;31.20;29.80;;;;;27.68;53.76;99348.88;5061217;27;8841;-78
2022/08/25 00:23:00;;;;;;;;;28.20;28.20;;;;;27.66;53.59;99348.16;5065643;28;8934;-78
2022/08/25 00:25:28;;;;;;;;;29.60;27.80;;;;;27.70;53.51;99345.13;5065789;28;9726;-80
2022/08/25 00:27:59;;;;;;;;;28.40;28.40;;;;;27.72;53.39;99342.31;5054498;28;8889;-79
2022/08/25 00:30:35;;;;;;;;;27.80;26.80;;;;;27.72;53.30;99332.44;5069606;28;9727;-79
2022/08/25 00:33:04;;;;;;;;;29.00;27.20;;;;;27.69;53.18;99330.00;5081843;28;8838;-76
2022/08/25 00:35:33;;;;;;;;;27.00;26.20;;;;;27.68;53.26;99316.72;5065687;28;8963;-79
2022/08/25 00:38:02;;;;;;;;;31.40;29.60;;;;;27.63;53.34;99318.91;5048689;28;8881;-78
2022/08/25 00:40:31;;;;;;;;;29.20;28.60;;;;;27.61;53.31;99319.84;5067951;28;8853;-78
2022/08/25 00:43:01;;;;;;;;;29.80;29.60;;;;;27.68;53.18;99319.41;5068841;28;8833;-77
2022/08/25 00:45:30;;;;;;;;;28.60;26.60;;;;;27.46;53.96;99314.81;5069391;28;8907;-80
2022/08/25 00:47:58;;;;;;;;;34.00;31.20;;;;;27.21;54.80;99319.25;5028548;28;8845;-80
2022/08/25 00:50:29;;;;;;;;;31.80;30.20;;;;;27.32;54.34;99319.34;5012650;28;8896;-79
2022/08/25 00:53:02;;;;;;;;;26.60;26.00;;;;;27.25;54.41;99315.41;5050660;28;8988;-78
2022/08/25 00:55:34;;;;;;;;;32.20;30.80;;;;;26.92;55.47;99318.69;5088881;28;8879;-78
2022/08/25 00:58:10;;;;;;;;;30.80;29.00;;;;;26.89;55.76;99306.38;5076938;28;8858;-78
2022/08/25 01:00:43;;;;;;;;;30.80;27.40;;;;;26.77;55.92;99316.16;5092099;28;8880;-78
2022/08/25 01:03:12;;;;;;;;;29.40;29.40;;;;;26.76;55.76;99308.22;5097170;28;8939;-78
2022/08/25 01:05:43;;;;;;;;;32.20;31.20;;;;;26.74;56.14;99311.00;5092281;28;8898;-78
2022/08/25 01:08:13;;;;;;;;;31.60;29.20;;;;;26.86;55.60;99317.28;5092296;28;8975;-78
2022/08/25 01:10:45;;;;;;;;;29.80;27.80;;;;;26.80;55.75;99312.41;5092144;28;8852;-78
2022/08/25 01:13:19;;;;;;;;;31.00;29.80;;;;;26.84;55.79;99306.72;5109504;28;8835;-77
2022/08/25 01:15:52;;;;;;;;;30.00;28.00;;;;;26.93;55.41;99313.22;5068527;28;9628;-76
2022/08/25 01:18:22;;;;;;;;;26.80;26.40;;;;;27.00;55.14;99313.66;5057130;28;8833;-77
2022/08/25 01:20:52;;;;;;;;;27.20;25.60;;;;;27.09;54.73;99318.34;5092260;28;8853;-79
2022/08/25 01:23:22;;;;;;;;;31.40;28.00;;;;;27.06;54.68;99315.88;5109448;28;8825;-77
2022/08/25 01:26:00;;;;;;;;;28.60;28.20;;;;;27.17;54.61;99317.78;5110624;28;8841;-78
2022/08/25 01:28:28;;;;;;;;;27.80;26.40;;;;;27.11;54.49;99311.03;5109413;28;8848;-79
2022/08/25 01:30:57;;;;;;;;;29.40;28.40;;;;;27.06;54.30;99310.50;5092872;28;8848;-79
2022/08/25 01:33:26;;;;;;;;;29.20;29.00;;;;;27.15;54.35;99304.50;5092564;28;8841;-79
2022/08/25 01:35:55;;;;;;;;;31.40;29.60;;;;;27.14;54.69;99301.94;5090977;28;8866;-77
2022/08/25 01:38:24;;;;;;;;;30.60;29.80;;;;;27.12;54.20;99307.38;5092028;28;8853;-80
2022/08/25 01:40:52;;;;;;;;;30.20;29.80;;;;;27.16;54.29;99313.38;5108516;28;9032;-77
2022/08/25 01:43:30;;;;;;;;;32.20;30.20;;;;;27.27;54.16;99317.97;5108860;28;8854;-79
2022/08/25 01:45:59;;;;;;;;;29.80;29.20;;;;;27.18;54.49;99315.00;5094985;27;8850;-79
2022/08/25 01:48:27;;;;;;;;;30.60;29.40;;;;;27.15;54.24;99311.69;5133107;27;8856;-78
2022/08/25 01:50:57;;;;;;;;;33.60;31.00;;;;;26.66;55.90;99318.75;5132197;27;8841;-77
2022/08/25 01:53:28;;;;;;;;;33.40;30.20;;;;;26.68;55.94;99316.81;5142919;27;8835;-77
2022/08/25 01:56:09;;;;;;;;;30.60;26.00;;;;;26.96;55.46;99318.38;5136970;27;8859;-78
2022/08/25 01:58:39;;;;;;;;;27.20;26.80;;;;;26.84;55.45;99322.78;5136063;27;8847;-79
2022/08/25 02:01:11;;;;;;;;;33.40;31.00;;;;;26.90;55.34;99316.13;5154044;27;8867;-78
2022/08/25 02:03:41;;;;;;;;;32.40;30.60;;;;;26.84;55.27;99325.47;5117763;27;8831;-77
2022/08/25 02:06:13;;;;;;;;;35.20;32.80;;;;;26.98;55.21;99315.59;5134525;27;9036;-78
2022/08/25 02:08:43;;;;;;;;;32.20;30.40;;;;;26.94;54.88;99306.91;5115390;27;8853;-77
2022/08/25 02:11:12;;;;;;;;;36.00;33.40;;;;;26.94;55.37;99308.75;5112806;27;8838;-78
2022/08/25 02:13:42;;;;;;;;;34.20;31.80;;;;;26.97;55.24;99312.03;5096250;27;8834;-79
2022/08/25 02:16:16;;;;;;;;;36.40;32.80;;;;;27.08;55.14;99310.41;5130867;27;8863;-77
2022/08/25 02:18:46;;;;;;;;;35.40;31.60;;;;;26.98;55.22;99307.56;5129987;27;8835;-77
2022/08/25 02:21:16;;;;;;;;;32.80;30.00;;;;;26.97;55.00;99304.00;5151592;27;8835;-79
2022/08/25 02:23:45;;;;;;;;;34.20;30.60;;;;;26.95;55.00;99294.38;5151701;27;8839;-79
2022/08/25 02:26:15;;;;;;;;;35.80;31.40;;;;;26.67;55.88;99293.69;5086092;28;9595;-77
2022/08/25 02:28:45;;;;;;;;;32.80;30.60;;;;;26.71;55.85;99295.19;5086783;28;8996;-78
2022/08/25 02:31:15;;;;;;;;;39.80;33.60;;;;;26.69;55.72;99296.25;5086527;28;8858;-79
2022/08/25 02:33:44;;;;;;;;;31.60;29.80;;;;;26.61;56.18;99286.09;5086677;28;8853;-79
2022/08/25 02:36:12;;;;;;;;;35.80;31.40;;;;;26.39;56.54;99287.59;5086454;28;8892;-79
2022/08/25 02:38:42;;;;;;;;;35.40;32.80;;;;;26.52;56.32;99294.75;5086432;28;8857;-78
2022/08/25 02:41:15;;;;;;;;;32.60;29.80;;;;;26.46;56.51;99293.34;5052827;28;8868;-78
2022/08/25 02:43:45;;;;;;;;;35.40;31.20;;;;;25.98;58.14;99293.16;5035052;28;8854;-78
2022/08/25 02:46:14;;;;;;;;;35.60;30.00;;;;;26.21;57.28;99294.22;5047613;28;8882;-77
2022/08/25 02:48:43;;;;;;;;;32.80;30.80;;;;;26.33;56.96;99301.38;5013108;28;8858;-79
2022/08/25 02:51:12;;;;;;;;;33.40;31.00;;;;;26.40;56.55;99302.66;4998113;28;8854;-78
2022/08/25 02:53:44;;;;;;;;;34.20;31.80;;;;;26.49;56.56;99305.69;5046983;28;8959;-80
2022/08/25 02:56:15;;;;;;;;;34.20;31.00;;;;;26.51;56.19;99303.75;5013770;28;8930;-79
2022/08/25 02:58:45;;;;;;;;;34.40;30.20;;;;;26.56;56.08;99304.25;5087155;28;8840;-77
2022/08/25 03:01:15;;;;;;;;;35.60;30.40;;;;;26.63;56.08;99309.13;5089323;28;8868;-77
2022/08/25 03:03:46;;;;;;;;;34.20;32.00;;;;;26.74;55.80;99316.38;5087265;28;8882;-79
2022/08/25 03:06:18;;;;;;;;;35.40;32.40;;;;;26.75;55.42;99318.09;5087642;28;8851;-79
2022/08/25 03:08:49;;;;;;;;;28.60;25.80;;;;;26.87;55.25;99316.34;5123718;27;9631;-78
2022/08/25 03:11:18;;;;;;;;;29.40;27.60;;;;;26.87;55.27;99327.06;5109936;27;8897;-80
2022/08/25 03:13:48;;;;;;;;;30.80;28.80;;;;;26.87;55.24;99332.41;5090777;28;8962;-78
2022/08/25 03:16:18;;;;;;;;;34.40;31.60;;;;;26.87;55.50;99331.56;5107194;28;9599;-79
2022/08/25 03:18:47;;;;;;;;;29.00;27.60;;;;;26.88;54.88;99326.09;5109604;28;8841;-79
2022/08/25 03:21:16;;;;;;;;;46.25;38.75;;;;;26.90;55.26;99324.16;5058193;28;8857;-79
2022/08/25 03:23:45;;;;;;;;;54.75;44.50;;;;;26.88;55.31;99327.91;5109397;28;8921;-78
2022/08/25 03:28:58;;;;;;;;;33.60;29.60;;;;;26.93;54.96;99334.63;5025946;28;8856;-79
2022/08/25 03:31:27;;;;;;;;;35.20;31.60;;;;;26.59;55.98;99320.09;5029121;28;8872;-78
2022/08/25 03:33:56;;;;;;;;;35.60;32.00;;;;;25.72;59.05;99326.94;5043528;28;8854;-79
2022/08/25 03:36:25;;;;;;;;;37.40;32.20;;;;;26.11;57.59;99314.56;5045749;28;8864;-80
2022/08/25 03:38:54;;;;;;;;;35.80;32.40;;;;;26.30;56.97;99314.97;5045671;28;8854;-78
2022/08/25 03:41:27;;;;;;;;;33.20;31.00;;;;;26.41;56.89;99316.91;5047079;28;8868;-78
2022/08/25 03:43:57;;;;;;;;;31.00;30.00;;;;;26.11;57.94;99326.09;5067236;28;8848;-78
2022/08/25 03:46:28;;;;;;;;;34.40;29.60;;;;;26.29;57.20;99326.63;5026783;28;8944;-78
2022/08/25 03:49:00;;;;;;;;;34.20;30.80;;;;;26.42;56.69;99331.97;5029437;28;8845;-78
2022/08/25 03:51:33;;;;;;;;;35.00;31.20;;;;;26.55;56.46;99335.50;5027135;28;8869;-78
2022/08/25 03:54:03;;;;;;;;;32.80;31.40;;;;;26.59;56.25;99334.34;5027452;28;8873;-79
2022/08/25 03:56:33;;;;;;;;;72.50;59.25;;;;;26.63;56.44;99338.56;5026939;28;8854;-77
2022/08/25 03:59:02;;;;;;;;;44.40;35.00;;;;;26.48;56.89;99333.38;5027357;28;8854;-78
2022/08/25 04:01:31;;;;;;;;;37.80;33.00;;;;;26.08;57.99;99334.31;4958099;28;8933;-79
2022/08/25 04:04:00;;;;;;;;;37.00;33.00;;;;;25.44;60.27;99331.41;4974507;28;8957;-79
2022/08/25 04:06:28;;;;;;;;;37.80;31.20;;;;;24.58;63.48;99334.22;5033138;28;8839;-79
2022/08/25 04:08:58;;;;;;;;;37.80;32.00;;;;;24.54;64.28;99316.66;5096015;28;8837;-79
2022/08/25 04:11:27;;;;;;;;;36.40;32.00;;;;;24.07;66.06;99322.09;5065548;28;8833;-77
2022/08/25 04:14:01;;;;;;;;;37.00;32.00;;;;;24.12;66.17;99325.38;5067459;28;8833;-79
2022/08/25 04:16:32;;;;;;;;;42.80;32.60;;;;;24.02;66.53;99329.50;5070784;28;8848;-78
2022/08/25 04:19:03;;;;;;;;;39.80;35.00;;;;;24.30;65.58;99333.19;5097438;28;9083;-79
2022/08/25 04:21:32;;;;;;;;;38.80;29.40;;;;;24.78;63.75;99322.28;5089010;28;9009;-80
2022/08/25 04:24:01;;;;;;;;;34.80;31.60;;;;;25.19;62.57;99321.47;5055811;28;8851;-79
2022/08/25 04:26:32;;;;;;;;;35.20;30.00;;;;;25.44;61.40;99320.75;5098692;28;9009;-78
2022/08/25 04:29:04;;;;;;;;;35.80;32.40;;;;;25.67;60.83;99322.75;5092955;28;8847;-80
2022/08/25 04:31:33;;;;;;;;;47.00;38.75;;;;;25.14;62.11;99318.22;5110087;28;8913;-78
2022/08/25 04:34:04;;;;;;;;;51.50;42.50;;;;;25.24;61.97;99319.38;5099967;28;8855;-79
2022/08/25 04:36:52;;;;;;;;;44.00;35.20;;;;;24.43;65.38;99322.63;5110341;28;8855;-79
2022/08/25 04:39:21;;;;;;;;;43.80;37.20;;;;;24.40;65.50;99318.34;5084583;28;8884;-78
2022/08/25 04:41:51;;;;;;;;;36.40;31.40;;;;;24.49;65.69;99314.25;5092442;28;8856;-77
2022/08/25 04:44:21;;;;;;;;;34.40;32.40;;;;;24.22;66.63;99330.13;5112091;28;8874;-79
2022/08/25 04:46:49;;;;;;;;;39.60;35.00;;;;;24.17;67.10;99325.06;5110635;28;8851;-79
2022/08/25 04:49:18;;;;;;;;;42.80;34.80;;;;;24.69;65.19;99331.72;5112149;28;8875;-77
2022/08/25 04:51:47;;;;;;;;;39.40;33.80;;;;;24.73;64.56;99330.59;5112186;28;8861;-79
2022/08/25 04:54:20;;;;;;;;;37.00;30.60;;;;;25.04;63.66;99328.63;5122494;27;8822;-80
2022/08/25 04:56:50;;;;;;;;;38.40;34.20;;;;;25.48;61.92;99330.25;5131528;27;8846;-78
2022/08/25 04:59:27;;;;;;;;;41.00;35.60;;;;;25.51;62.07;99313.19;5104665;28;8891;-77
2022/08/25 05:02:01;;;;;;;;;41.00;35.00;;;;;25.03;63.64;99325.13;5112013;28;8973;-76
2022/08/25 05:04:32;;;;;;;;;40.60;35.00;;;;;25.22;62.47;99319.44;5112343;28;8837;-80
2022/08/25 05:07:01;;;;;;;;;40.60;36.00;;;;;25.41;62.63;99318.28;5112039;28;8861;-79
2022/08/25 05:09:30;;;;;;;;;34.80;32.40;;;;;25.76;61.42;99313.25;5113003;27;8849;-78
2022/08/25 05:12:01;;;;;;;;;35.40;33.00;;;;;25.88;60.98;99312.44;5093033;28;8940;-81
2022/08/25 05:14:32;;;;;;;;;34.40;32.20;;;;;26.08;60.04;99314.75;5110242;28;8837;-77
2022/08/25 05:17:01;;;;;;;;;38.80;33.40;;;;;26.30;59.35;99309.63;5108890;28;8956;-79
2022/08/25 05:19:30;;;;;;;;;39.20;33.40;;;;;26.11;59.51;99318.06;5109493;28;8849;-79
2022/08/25 05:21:59;;;;;;;;;37.60;34.00;;;;;26.32;59.17;99307.69;5093797;28;10078;-77
2022/08/25 05:24:28;;;;;;;;;38.00;33.80;;;;;26.40;58.46;99313.34;5111146;28;8926;-80
2022/08/25 05:26:57;;;;;;;;;37.80;32.80;;;;;26.61;58.14;99319.03;5122445;28;8953;-77
2022/08/25 05:29:26;;;;;;;;;33.40;31.80;;;;;26.85;57.79;99323.63;5115627;28;8865;-79
2022/08/25 05:31:56;;;;;;;;;41.80;35.40;;;;;26.37;58.74;99328.75;5127222;28;8896;-77
2022/08/25 05:34:24;;;;;;;;;37.80;32.80;;;;;26.26;59.04;99332.19;5096222;28;8841;-78
2022/08/25 05:36:53;;;;;;;;;41.00;35.20;;;;;26.59;58.37;99325.44;5103414;28;8999;-78
2022/08/25 05:39:22;;;;;;;;;38.80;33.60;;;;;26.74;57.57;99329.75;5110390;28;8853;-79
2022/08/25 05:41:54;;;;;;;;;42.20;35.80;;;;;25.94;60.28;99323.72;5114812;28;8975;-77
2022/08/25 05:44:22;;;;;;;;;35.60;33.40;;;;;26.21;59.31;99327.16;5138205;27;8980;-79
2022/08/25 05:46:51;;;;;;;;;37.60;32.80;;;;;26.49;58.58;99327.06;5130973;27;8918;-78
2022/08/25 05:49:21;;;;;;;;;42.80;37.20;;;;;26.39;59.16;99325.03;5112641;28;8833;-77
2022/08/25 05:51:49;;;;;;;;;39.80;34.80;;;;;26.63;58.37;99318.94;5111248;28;8861;-79
2022/08/25 05:54:18;;;;;;;;;43.80;34.20;;;;;26.95;57.78;99319.31;5111516;28;9734;-79
2022/08/25 05:56:47;;;;;;;;;38.00;32.80;;;;;26.77;57.92;99326.84;5075460;28;8945;-78
2022/08/25 05:59:15;;;;;;;;;37.00;32.40;;;;;27.02;57.08;99325.09;5095372;28;8958;-79
2022/08/25 06:04:32;;;;;;;;;33.60;30.80;;;;;26.79;57.60;99324.06;5129616;27;8851;-80
2022/08/25 06:07:01;;;;;;;;;36.40;32.60;;;;;26.84;57.73;99328.13;5129179;27;8851;-79
2022/08/25 06:09:29;;;;;;;;;43.40;37.20;;;;;27.32;56.49;99319.34;5130243;27;8838;-80
2022/08/25 06:11:58;;;;;;;;;37.80;34.60;;;;;27.51;55.86;99320.69;5128925;27;8862;-80
2022/08/25 06:14:26;;;;;;;;;35.80;32.60;;;;;27.68;55.43;99319.41;5110872;27;8852;-80
2022/08/25 06:16:55;;;;;;;;;33.00;31.80;;;;;27.94;54.78;99321.00;5108387;28;8880;-78
2022/08/25 06:19:24;;;;;;;;;37.00;33.80;;;;;28.12;54.25;99320.56;5111105;27;8854;-79
2022/08/25 06:21:57;;;;;;;;;33.00;32.00;;;;;28.05;53.45;99316.63;5133183;27;9737;-79
2022/08/25 06:24:28;;;;;;;;;40.20;34.60;;;;;28.08;53.76;99327.13;5077927;27;8912;-78
2022/08/25 06:26:56;;;;;;;;;37.20;34.60;;;;;27.76;54.58;99327.72;5129054;27;8858;-79
2022/08/25 06:29:26;;;;;;;;;39.00;35.00;;;;;28.10;53.89;99319.81;5129758;27;8881;-79
2022/08/25 06:31:54;;;;;;;;;34.60;32.40;;;;;28.37;53.35;99317.69;5093972;27;8957;-81
2022/08/25 06:34:23;;;;;;;;;37.60;34.00;;;;;28.63;52.64;99322.00;5119638;27;8863;-78
2022/08/25 06:36:52;;;;;;;;;38.40;34.80;;;;;28.84;52.39;99325.66;5125057;27;8854;-78
2022/08/25 06:39:23;;;;;;;;;41.00;34.40;;;;;28.66;52.44;99321.75;5095454;27;8892;-77
2022/08/25 06:41:52;;;;;;;;;39.40;35.40;;;;;28.92;52.08;99323.22;5115640;27;8930;-78
2022/08/25 06:44:21;;;;;;;;;38.00;32.60;;;;;29.13;51.69;99323.34;5151363;27;8839;-80
2022/08/25 06:46:50;;;;;;;;;42.20;36.80;;;;;29.33;50.99;99326.22;5151162;27;8875;-78
2022/08/25 06:49:20;;;;;;;;;37.40;34.40;;;;;29.46;50.51;99326.06;5127057;27;8853;-78
2022/08/25 06:51:49;;;;;;;;;39.60;34.00;;;;;29.59;50.12;99329.44;5129310;27;8877;-80
2022/08/25 06:54:17;;;;;;;;;36.60;32.60;;;;;29.70;50.21;99328.56;5121547;27;8839;-76
2022/08/25 06:56:47;;;;;;;;;39.20;34.20;;;;;29.70;49.24;99323.19;5149889;27;8896;-78
2022/08/25 06:59:17;;;;;;;;;41.25;36.75;;;;;28.99;51.34;99323.56;5131684;27;8873;-79
2022/08/25 07:01:46;;;;;;;;;45.40;37.00;;;;;28.48;52.38;99330.22;5150114;27;8858;-78
2022/08/25 07:04:17;;;;;;;;;48.75;39.75;;;;;28.14;53.14;99326.66;5151830;27;8859;-81
2022/08/25 07:06:47;;;;;;;;;44.25;37.50;;;;;28.42;53.10;99328.03;5138105;27;8859;-80
2022/08/25 07:09:15;;;;;;;;;40.00;33.25;;;;;28.33;52.89;99334.97;5114342;27;8944;-79
2022/08/25 07:11:45;;;;;;;;;49.00;40.50;;;;;28.29;53.80;99338.88;5130330;27;9663;-80
2022/08/25 07:14:17;;;;;;;;;41.75;36.75;;;;;28.19;53.59;99327.16;5130242;27;8838;-80
2022/08/25 07:16:47;;;;;;;;;42.60;37.60;;;;;27.64;55.15;99336.66;5111665;27;8853;-78
2022/08/25 07:19:19;;;;;;;;;41.00;34.40;;;;;27.67;55.06;99333.75;5130120;27;8865;-81
2022/08/25 07:21:52;;;;;;;;;45.75;36.50;;;;;27.52;55.92;99331.25;5111160;27;8872;-80
2022/08/25 07:24:22;;;;;;;;;44.50;38.25;;;;;26.29;59.63;99323.94;5149423;27;8970;-80
2022/08/25 07:26:52;;;;;;;;;40.60;35.60;;;;;26.93;57.97;99326.59;5129791;27;8831;-79
2022/08/25 07:29:24;;;;;;;;;43.60;38.00;;;;;27.60;56.18;99331.56;5096063;27;8931;-80
2022/08/25 07:32:01;;;;;;;;;49.33;41.00;;;;;27.69;55.83;99327.31;5149522;27;8823;-80
2022/08/25 07:37:22;;;;;;;;;48.75;41.50;;;;;26.49;59.53;99319.91;5110969;27;8841;-82
2022/08/25 07:40:13;;;;;;;;;46.25;39.00;;;;;26.50;59.93;99324.25;5129143;27;8945;-78
2022/08/25 07:42:42;;;;;;;;;50.25;42.00;;;;;26.95;58.80;99324.66;5129400;27;8830;-79
2022/08/25 07:45:13;;;;;;;;;49.75;40.25;;;;;26.52;60.04;99330.38;5087860;27;9007;-79
2022/08/25 07:47:45;;;;;;;;;48.50;41.00;;;;;27.08;57.98;99332.66;5110766;27;8889;-82
2022/08/25 07:50:14;;;;;;;;;49.25;38.25;;;;;27.76;56.20;99325.88;5129840;27;9539;-79
2022/08/25 07:52:42;;;;;;;;;38.80;35.60;;;;;28.00;55.43;99325.88;5110794;27;8896;-80
2022/08/25 07:55:20;;;;;;;;;45.75;38.25;;;;;28.43;54.09;99329.78;5116130;27;8843;-79
2022/08/25 07:57:49;;;;;;;;;46.50;37.50;;;;;28.31;53.86;99319.97;5150090;27;8881;-81
2022/08/25 08:00:28;;;;;;;;;40.50;35.50;;;;;28.30;54.06;99319.13;5130509;27;8844;-81
2022/08/25 08:02:57;;;;;;;;;47.75;39.25;;;;;28.62;53.38;99310.41;5131593;27;8854;-79
2022/08/25 08:05:27;;;;;;;;;50.75;41.00;;;;;28.08;55.77;99316.41;5149862;27;8965;-80
2022/08/25 08:07:56;;;;;;;;;47.50;38.00;;;;;27.44;56.98;99306.88;5131489;27;9627;-81
2022/08/25 08:10:25;;;;;;;;;45.75;38.00;;;;;27.96;55.91;99308.34;5094074;27;8845;-79
2022/08/25 08:13:14;;;;;;;;;48.50;40.00;;;;;27.37;57.27;99313.66;5121658;27;8877;-79
2022/08/25 08:15:47;;;;;;;;;42.00;37.25;;;;;28.28;55.08;99305.00;5129387;27;8826;-81
2022/08/25 08:18:16;;;;;;;;;46.75;37.00;;;;;28.25;54.77;99307.06;5079655;27;8863;-80
2022/08/25 08:20:47;;;;;;;;;44.75;37.25;;;;;28.88;53.54;99297.56;5130918;27;9620;-79
2022/08/25 08:23:16;;;;;;;;;47.00;38.75;;;;;28.68;53.65;99307.25;5113956;27;9712;-77
2022/08/25 08:25:45;;;;;;;;;45.25;36.75;;;;;28.21;54.64;99305.59;5085196;28;8902;-80
2022/08/25 08:28:13;;;;;;;;;51.00;42.75;;;;;28.59;53.46;99297.25;5052124;28;8866;-80
2022/08/25 08:30:43;;;;;;;;;44.50;37.50;;;;;28.10;55.22;99296.53;5068082;28;8912;-80
2022/08/25 08:33:24;;;;;;;;;39.25;35.75;;;;;28.27;55.36;99294.38;5068339;28;8830;-80
2022/08/25 08:36:04;;;;;;;;;37.50;33.75;;;;;28.53;54.14;99295.03;5044977;28;8866;-82
2022/08/25 08:38:33;;;;;;;;;38.67;35.00;;;;;27.97;56.23;99293.94;5028865;28;8899;-77
2022/08/25 08:44:28;;;;;;;;;41.75;36.25;;;;;28.65;54.24;99290.53;5029091;28;8862;-82
2022/08/25 08:47:04;;;;;;;;;43.00;36.00;;;;;28.22;55.27;99293.88;5028421;28;8880;-81
2022/08/25 08:49:48;;;;;;;;;41.50;35.50;;;;;28.12;55.42;99293.75;5044112;28;8842;-84
2022/08/25 08:52:20;;;;;;;;;34.00;31.80;;;;;28.51;53.57;99288.91;5027908;28;8884;-78
2022/08/25 08:54:55;;;;;;;;;41.75;35.50;;;;;28.68;53.96;99284.94;5045220;28;8874;-82
2022/08/25 08:57:28;;;;;;;;;40.40;33.60;;;;;29.52;51.88;99286.09;5038762;28;8984;-79
2022/08/25 09:00:01;;;;;;;;;41.75;35.50;;;;;28.82;53.52;99284.66;5060011;28;8828;-79
2022/08/25 09:02:38;;;;;;;;;38.00;34.25;;;;;29.10;52.74;99288.63;5108346;28;8843;-78
2022/08/25 09:05:27;;;;;;;;;44.25;36.25;;;;;29.68;50.49;99285.66;5108488;27;8863;-80
2022/08/25 09:07:58;;;;;;;;;43.50;37.50;;;;;29.38;51.60;99283.72;5091727;28;8924;-78
2022/08/25 09:10:39;;;;;;;;;36.20;33.20;;;;;28.88;52.50;99286.84;5058484;28;8835;-80
2022/08/25 09:13:18;;;;;;;;;41.40;36.20;;;;;29.31;51.86;99293.25;5110915;27;8871;-81
2022/08/25 09:19:16;;;;;;;;;37.80;32.60;;;;;28.37;53.54;99296.22;5094965;27;8869;-79
2022/08/25 09:22:01;;;;;;;;;35.40;31.20;;;;;28.96;51.55;99283.53;5122512;27;8874;-78
2022/08/25 09:24:57;;;;;;;;;38.60;34.00;;;;;29.05;51.77;99288.16;5108268;28;8887;-79
2022/08/25 09:27:36;;;;;;;;;43.50;35.25;;;;;28.86;52.87;99280.72;5091788;27;8938;-78
2022/08/25 09:30:11;;;;;;;;;36.75;33.75;;;;;29.42;51.50;99276.25;5131154;27;10225;-78
2022/08/25 09:32:43;;;;;;;;;32.20;30.00;;;;;29.24;50.89;99275.94;5131546;27;8857;-78
2022/08/25 09:35:24;;;;;;;;;34.00;31.40;;;;;29.91;49.38;99273.00;5065828;27;8838;-79
2022/08/25 09:38:00;;;;;;;;;29.20;27.40;;;;;30.66;48.40;99254.84;5098399;27;8845;-80
2022/08/25 09:40:33;;;;;;;;;34.80;32.00;;;;;29.67;50.37;99272.34;5131715;27;8973;-81
2022/08/25 09:43:17;;;;;;;;;40.00;34.00;;;;;29.16;52.00;99265.81;5130882;27;8830;-80
2022/08/25 09:45:49;;;;;;;;;29.80;29.20;;;;;30.37;49.42;99257.41;5095598;27;8841;-80
2022/08/25 09:48:25;;;;;;;;;41.20;34.60;;;;;29.09;51.62;99260.09;5094968;27;8887;-80
2022/08/25 09:51:01;;;;;;;;;37.00;32.80;;;;;29.48;50.02;99255.09;5130966;27;8841;-80
2022/08/25 09:53:33;;;;;;;;;37.00;32.60;;;;;29.61;49.76;99251.38;5077438;27;8953;-82
2022/08/25 09:56:06;;;;;;;;;29.40;28.80;;;;;30.47;49.00;99244.00;5130253;27;8946;-80
2022/08/25 09:58:35;;;;;;;;;34.20;32.40;;;;;29.68;49.52;99249.84;5131011;27;8871;-79
2022/08/25 10:01:15;;;;;;;;;33.25;29.50;;;;;29.86;50.23;99251.00;5077273;27;8861;-81
2022/08/25 10:03:59;;;;;;;;;32.60;31.00;;;;;29.63;50.54;99241.34;5074414;28;8829;-80
2022/08/25 10:06:35;;;;;;;;;36.20;33.40;;;;;29.89;49.37;99245.38;5090664;28;8896;-79
2022/08/25 10:09:07;;;;;;;;;34.40;32.00;;;;;30.61;48.00;99235.56;5056440;28;8871;-79
2022/08/25 10:11:42;;;;;;;;;29.60;26.60;;;;;31.27;46.29;99239.56;5087495;28;8972;-79
2022/08/25 10:14:21;;;;;;;;;32.80;30.00;;;;;30.57;47.29;99234.13;5088769;28;8849;-79
2022/08/25 10:16:53;;;;;;;;;31.40;30.40;;;;;30.80;47.07;99232.06;5089355;28;8978;-79
2022/08/25 10:19:25;;;;;;;;;30.80;29.60;;;;;31.70;45.60;99223.94;5050649;28;8857;-81
2022/08/25 10:22:07;;;;;;;;;28.40;27.20;;;;;32.22;43.79;99222.56;5050467;28;8906;-83
2022/08/25 10:24:40;;;;;;;;;27.60;26.40;;;;;32.58;43.50;99213.78;5068472;28;8879;-80
2022/08/25 10:27:23;;;;;;;;;33.75;32.25;;;;;32.21;42.90;99209.22;5059421;28;8975;-79
2022/08/25 10:30:14;;;;;;;;;29.60;29.00;;;;;32.51;43.43;99207.25;5087434;28;8854;-79
2022/08/25 10:33:00;;;;;;;;;29.75;28.75;;;;;33.28;42.65;99207.81;5086888;28;8856;-81
2022/08/25 10:35:40;;;;;;;;;29.20;28.80;;;;;31.93;42.83;99214.56;5100696;27;8838;-80
2022/08/25 10:38:23;;;;;;;;;30.20;29.80;;;;;32.24;43.13;99206.25;5130622;27;8853;-79
2022/08/25 10:41:09;;;;;;;;;37.00;33.25;;;;;32.98;42.69;99204.44;5130741;27;8876;-82
2022/08/25 10:43:49;;;;;;;;;31.00;30.00;;;;;33.18;40.94;99197.06;5129873;27;9738;-83
2022/08/25 10:46:31;;;;;;;;;32.20;29.60;;;;;33.01;41.26;99199.59;5095114;27;9107;-81
2022/08/25 10:49:04;;;;;;;;;29.40;28.60;;;;;32.88;40.47;99207.22;5111996;27;8837;-80
2022/08/25 10:51:50;;;;;;;;;30.60;29.80;;;;;31.99;42.88;99205.03;5099596;27;8872;-79
2022/08/25 10:54:32;;;;;;;;;31.00;29.40;;;;;32.50;41.99;99200.16;5147555;27;8886;-85
2022/08/25 10:57:17;;;;;;;;;32.25;30.00;;;;;32.32;42.54;99208.19;5130867;27;9056;-83
2022/08/25 11:00:03;;;;;;;;;32.75;30.00;;;;;31.76;44.01;99199.97;5132128;27;8839;-79
2022/08/25 11:03:01;;;;;;;;;32.50;31.00;;;;;31.80;44.88;99195.13;5131459;27;8827;-81
2022/08/25 11:05:35;;;;;;;;;28.60;28.40;;;;;32.49;43.29;99195.75;5131731;27;8862;-84
2022/08/25 11:08:10;;;;;;;;;25.40;25.00;;;;;32.96;42.06;99191.06;5123586;27;9599;-82
2022/08/25 11:10:44;;;;;;;;;27.00;25.40;;;;;33.05;41.62;99189.31;5111482;27;8850;-79
2022/08/25 11:13:24;;;;;;;;;29.80;27.00;;;;;33.78;40.44;99191.84;5120295;27;8843;-82
2022/08/25 11:16:01;;;;;;;;;21.20;21.20;;;;;34.12;39.07;99182.91;5113247;27;8839;-79
2022/08/25 11:18:54;;;;;;;;;30.00;29.00;;;;;33.60;39.86;99181.03;5118750;27;8843;-81
2022/08/25 11:21:31;;;;;;;;;27.20;25.40;;;;;33.88;39.85;99174.66;5063950;27;8866;-81
2022/08/25 11:24:15;;;;;;;;;21.80;19.20;;;;;34.46;39.11;99167.69;5131054;27;8847;-79
2022/08/25 11:26:51;;;;;;;;;18.80;18.80;;;;;34.75;36.95;99167.31;5131732;27;8843;-80
2022/08/25 11:29:26;;;;;;;;;21.40;21.40;;;;;35.00;37.05;99161.94;5149791;27;8816;-80
2022/08/25 11:31:59;;;;;;;;;20.80;20.60;;;;;35.09;37.18;99163.63;5131769;27;9979;-78
2022/08/25 11:34:32;;;;;;;;;21.20;20.60;;;;;35.38;36.53;99151.47;5115051;27;8847;-79
2022/08/25 11:37:07;;;;;;;;;21.00;20.60;;;;;34.56;36.26;99158.41;5150635;27;8869;-79
2022/08/25 11:40:01;;;;;;;;;20.40;20.40;;;;;35.04;36.54;99155.16;5131633;27;8883;-79
2022/08/25 11:42:41;;;;;;;;;18.60;18.60;;;;;35.00;35.86;99145.66;5113006;27;8835;-79
2022/08/25 11:45:43;;;;;;;;;22.80;21.00;;;;;33.64;38.03;99140.19;5129230;27;8883;-81
2022/08/25 11:48:23;;;;;;;;;17.60;17.40;;;;;33.93;38.52;99145.25;5111047;27;8838;-83
2022/08/25 11:51:01;;;;;;;;;24.80;23.80;;;;;34.01;37.84;99136.31;5129240;27;8848;-80
2022/08/25 11:53:34;;;;;;;;;20.20;18.80;;;;;34.69;36.89;99136.31;5110934;27;8837;-79
2022/08/25 11:56:08;;;;;;;;;21.20;19.80;;;;;34.53;36.63;99136.22;5129158;27;8873;-79
2022/08/25 11:58:46;;;;;;;;;21.60;21.00;;;;;33.82;38.08;99138.28;5132570;27;8876;-79
2022/08/25 12:01:50;;;;;;;;;17.80;17.80;;;;;34.09;37.79;99139.09;5137295;27;8839;-80
2022/08/25 12:04:38;;;;;;;;;21.60;20.60;;;;;35.05;37.08;99127.00;5149964;27;8931;-79